Terminal Aerodrome Forecast
Issued by NWS

Home | Current Version | Previous Version | Text Only | Print | Product List | Glossary On
Versions: 1 2 3 4 5 6 7 8 9 10 11 12 13
505
FTUS46 KSEW 211122
TAFCLM
TAF
KCLM 211122Z 2112/2212 28010G20KT P6SM -SHRA SCT025 BKN045
     FM211700 30014G24KT P6SM VCSH SCT045
     FM220000 29012G20KT P6SM SCT200=

USA.gov is the U.S. government's official web portal to all federal, state and local government web resources and services.